Time;durP1;ratioP1;P1;durP2;ratioP2;P2;SDS_P1;SDS_P2;PMS_P1;PMS_P2;Temp;Humidity;BMP_temperature;BMP_pressure;BME280_temperature;BME280_humidity;BME280_pressure;Samples;Min_cycle;Max_cycle;Signal;HPM_P1;HPM_P2
2023/03/05 00:01:43;;;;;;;;;;;;;;;25.77;48.70;96486.92;599762;236;68682;-73
2023/03/05 00:04:12;;;;;;;;;;;;;;;25.78;49.46;96493.09;593201;239;68256;-73
2023/03/05 00:06:39;;;;;;;;;;;;;;;25.77;47.71;96486.14;599713;235;65185;-74
2023/03/05 00:09:07;;;;;;;;;;;;;;;25.76;50.43;96490.73;593195;239;68716;-74
2023/03/05 00:11:34;;;;;;;;;;;;;;;25.75;47.61;96481.06;599716;235;68877;-74
2023/03/05 00:14:03;;;;;;;;;;;;;;;25.77;50.53;96475.38;593182;239;64873;-74
2023/03/05 00:16:30;;;;;;;;;;;;;;;25.76;51.24;96468.42;599739;236;68819;-74
2023/03/05 00:18:59;;;;;;;;;;;;;;;25.74;51.21;96474.11;593184;239;66496;-74
2023/03/05 00:21:30;;;;;;;;;;;;;;;25.74;51.96;96468.72;599693;236;65185;-74
2023/03/05 00:24:02;;;;;;;;;;;;;;;25.74;47.52;96470.63;593221;239;68806;-74
2023/03/05 00:26:33;;;;;;;;;;;;;;;25.72;51.10;96465.55;599785;236;68335;-74
2023/03/05 00:29:00;;;;;;;;;;;;;;;25.72;50.21;96462.06;593158;239;65247;-74
2023/03/05 00:31:32;;;;;;;;;;;;;;;25.72;52.45;96462.06;599755;236;68300;-74
2023/03/05 00:34:01;;;;;;;;;;;;;;;25.72;52.74;96465.55;593179;239;68512;-74
2023/03/05 00:36:29;;;;;;;;;;;;;;;25.69;49.07;96460.80;599737;236;64893;-74
2023/03/05 00:38:56;;;;;;;;;;;;;;;25.70;50.47;96462.40;593186;237;69663;-75
2023/03/05 00:41:24;;;;;;;;;;;;;;;25.70;51.62;96454.33;599762;236;68314;-76
2023/03/05 00:43:52;;;;;;;;;;;;;;;25.69;53.36;96455.41;593237;239;65123;-76
2023/03/05 00:46:20;;;;;;;;;;;;;;;25.68;53.08;96462.70;599710;234;68386;-75
2023/03/05 00:48:47;;;;;;;;;;;;;;;25.67;49.13;96465.69;593210;239;68397;-75
2023/03/05 00:51:17;;;;;;;;;;;;;;;25.67;48.22;96463.00;597484;237;46188;-75
2023/03/05 00:53:44;;;;;;;;;;;;;;;25.66;50.51;96458.73;601102;236;69880;-74
2023/03/05 00:56:12;;;;;;;;;;;;;;;25.66;49.40;96456.05;594468;238;68585;-74
2023/03/05 00:58:39;;;;;;;;;;;;;;;25.67;52.59;96457.63;601072;236;62743;-74
2023/03/05 01:01:09;;;;;;;;;;;;;;;25.64;48.29;96456.34;601783;234;50479;-74
2023/03/05 01:03:37;;;;;;;;;;;;;;;25.65;49.63;96449.87;594413;238;69502;-74
2023/03/05 01:06:06;;;;;;;;;;;;;;;25.64;50.69;96444.80;601036;234;63058;-74
2023/03/05 01:08:33;;;;;;;;;;;;;;;25.64;50.87;96444.80;594425;237;69638;-74
2023/03/05 01:11:01;;;;;;;;;;;;;;;25.62;49.14;96445.13;601067;236;68773;-74
2023/03/05 01:13:29;;;;;;;;;;;;;;;25.64;53.24;96452.88;594434;237;65310;-74
2023/03/05 01:15:58;;;;;;;;;;;;;;;25.61;49.92;96451.59;598112;237;50090;-74
2023/03/05 01:18:27;;;;;;;;;;;;;;;25.61;49.84;96450.81;601031;236;68261;-74
2023/03/05 01:20:55;;;;;;;;;;;;;;;25.61;50.19;96448.13;594434;238;64790;-74
2023/03/05 01:23:22;;;;;;;;;;;;;;;25.61;49.70;96453.50;601051;236;66063;-74
2023/03/05 01:25:57;;;;;;;;;;;;;;;25.60;49.14;96454.63;594412;238;66839;-74
2023/03/05 01:28:25;;;;;;;;;;;;;;;25.59;49.69;96458.40;601026;236;64853;-74
2023/03/05 01:30:52;;;;;;;;;;;;;;;25.59;49.92;96453.02;590217;238;70381;-74
2023/03/05 01:33:20;;;;;;;;;;;;;;;25.59;47.88;96450.33;601037;236;68736;-74
2023/03/05 01:35:48;;;;;;;;;;;;;;;25.58;49.74;96452.23;594476;238;64838;-76
2023/03/05 01:38:16;;;;;;;;;;;;;;;25.58;51.91;96451.45;596801;235;66472;-76
2023/03/05 01:40:44;;;;;;;;;;;;;;;25.57;53.95;96450.66;594433;237;68664;-75
2023/03/05 01:43:13;;;;;;;;;;;;;;;25.56;51.07;96454.44;601041;236;64832;-75
2023/03/05 01:45:58;;;;;;;;;;;;;;;25.56;49.09;96453.65;594411;238;66211;-75
2023/03/05 01:48:26;;;;;;;;;;;;;;;25.56;49.59;96448.27;601022;236;68538;-74
2023/03/05 01:50:54;;;;;;;;;;;;;;;25.55;50.13;96452.86;594234;238;62795;-74
2023/03/05 01:53:22;;;;;;;;;;;;;;;25.55;52.30;96447.48;599697;236;68754;-74
2023/03/05 01:55:49;;;;;;;;;;;;;;;25.53;48.57;96454.28;593152;239;66429;-75
2023/03/05 01:58:17;;;;;;;;;;;;;;;25.54;52.06;96445.12;599685;236;65085;-75
2023/03/05 02:00:46;;;;;;;;;;;;;;;25.53;49.94;96447.00;593107;239;68897;-74
2023/03/05 02:03:14;;;;;;;;;;;;;;;25.52;51.35;96442.73;599718;235;68741;-74
2023/03/05 02:05:43;;;;;;;;;;;;;;;25.52;51.27;96441.95;593137;239;64917;-74
2023/03/05 02:08:15;;;;;;;;;;;;;;;25.50;49.06;96444.94;599700;235;68832;-74
2023/03/05 02:10:44;;;;;;;;;;;;;;;25.50;50.86;96447.63;592949;238;68670;-74
2023/03/05 02:13:13;;;;;;;;;;;;;;;25.50;53.48;96436.08;599679;236;62776;-74
2023/03/05 02:15:41;;;;;;;;;;;;;;;25.47;50.29;96446.36;593128;239;69244;-74
2023/03/05 02:18:09;;;;;;;;;;;;;;;25.49;50.59;96440.67;599685;236;68697;-74
2023/03/05 02:20:57;;;;;;;;;;;;;;;25.47;50.88;96449.05;593122;237;65169;-74
2023/03/05 02:23:26;;;;;;;;;;;;;;;25.47;50.19;96443.66;599694;234;66437;-74
2023/03/05 02:25:54;;;;;;;;;;;;;;;25.47;53.34;96445.57;593134;239;66381;-75
2023/03/05 02:28:23;;;;;;;;;;;;;;;25.45;49.99;96445.90;599665;236;62865;-74
2023/03/05 02:30:51;;;;;;;;;;;;;;;25.44;48.72;96446.98;593140;239;68491;-75
2023/03/05 02:33:19;;;;;;;;;;;;;;;25.45;51.46;96453.16;599717;236;66169;-75
2023/03/05 02:35:47;;;;;;;;;;;;;;;25.45;51.99;96450.46;593118;239;65729;-75
2023/03/05 02:38:16;;;;;;;;;;;;;;;25.44;49.97;96446.20;599679;236;68783;-75
2023/03/05 02:40:43;;;;;;;;;;;;;;;25.44;52.21;96448.89;593072;239;66790;-75
2023/03/05 02:43:12;;;;;;;;;;;;;;;25.43;50.93;96444.63;599660;236;64682;-75
2023/03/05 02:45:39;;;;;;;;;;;;;;;25.42;51.70;96446.50;593164;239;68861;-75
2023/03/05 02:48:07;;;;;;;;;;;;;;;25.42;51.82;96453.78;599668;236;68542;-75
2023/03/05 02:50:35;;;;;;;;;;;;;;;25.41;49.32;96453.00;593107;239;65987;-75
2023/03/05 02:53:03;;;;;;;;;;;;;;;25.40;49.17;96451.42;599639;236;66457;-75
2023/03/05 02:55:30;;;;;;;;;;;;;;;25.41;51.12;96446.83;593064;237;66465;-75
2023/03/05 02:57:59;;;;;;;;;;;;;;;25.40;53.80;96451.42;599725;236;66098;-75
2023/03/05 03:00:28;;;;;;;;;;;;;;;25.39;52.91;96452.51;593087;239;68910;-75
2023/03/05 03:02:55;;;;;;;;;;;;;;;25.38;53.35;96459.00;599673;236;68333;-75
2023/03/05 03:05:23;;;;;;;;;;;;;;;25.38;49.67;96448.25;593114;239;64887;-74
2023/03/05 03:07:50;;;;;;;;;;;;;;;25.39;50.57;96454.41;599635;235;68887;-74
2023/03/05 03:10:17;;;;;;;;;;;;;;;25.38;50.21;96447.45;593153;239;68546;-74
2023/03/05 03:12:45;;;;;;;;;;;;;;;25.37;49.43;96446.67;599653;236;64738;-74
2023/03/05 03:15:13;;;;;;;;;;;;;;;25.37;51.07;96453.92;593117;239;68794;-74
2023/03/05 03:17:41;;;;;;;;;;;;;;;25.37;52.47;96454.74;599692;236;68562;-74
2023/03/05 03:20:12;;;;;;;;;;;;;;;25.35;49.51;96451.56;593092;239;64948;-74
2023/03/05 03:22:40;;;;;;;;;;;;;;;25.35;50.76;96454.25;599656;236;66555;-73
2023/03/05 03:25:09;;;;;;;;;;;;;;;25.35;51.60;96448.09;593166;239;66467;-73
2023/03/05 03:27:37;;;;;;;;;;;;;;;25.33;49.70;96453.77;599653;236;62834;-73
2023/03/05 03:30:05;;;;;;;;;;;;;;;25.34;50.28;96451.86;593092;239;66484;-73
2023/03/05 03:32:32;;;;;;;;;;;;;;;25.33;53.15;96443.01;599679;236;66458;-73
2023/03/05 03:35:00;;;;;;;;;;;;;;;25.32;50.25;96441.44;593068;239;63538;-74
2023/03/05 03:37:27;;;;;;;;;;;;;;;25.32;51.81;96440.63;599720;236;68669;-75
2023/03/05 03:39:55;;;;;;;;;;;;;;;25.31;50.79;96447.11;593084;239;68604;-73
2023/03/05 03:42:23;;;;;;;;;;;;;;;25.31;48.23;96453.28;599677;236;64926;-73
2023/03/05 03:44:50;;;;;;;;;;;;;;;25.31;53.52;96447.91;593114;239;68717;-73
2023/03/05 03:47:18;;;;;;;;;;;;;;;25.30;51.76;96451.70;599687;236;68263;-75
2023/03/05 03:49:45;;;;;;;;;;;;;;;25.29;51.67;96458.20;593147;239;64871;-75
2023/03/05 03:52:13;;;;;;;;;;;;;;;25.29;54.66;96450.13;599639;236;68620;-75
2023/03/05 03:54:40;;;;;;;;;;;;;;;25.26;48.94;96453.42;593095;239;69064;-75
2023/03/05 03:57:09;;;;;;;;;;;;;;;25.28;53.14;96448.53;599675;236;63517;-75
2023/03/05 03:59:36;;;;;;;;;;;;;;;25.25;49.95;96449.95;593114;239;66501;-75
2023/03/05 04:02:04;;;;;;;;;;;;;;;25.27;52.79;96451.55;599653;236;66594;-75
2023/03/05 04:04:31;;;;;;;;;;;;;;;25.25;49.37;96451.84;593124;239;62756;-75
2023/03/05 04:06:59;;;;;;;;;;;;;;;25.24;49.83;96450.27;599669;236;68722;-75
2023/03/05 04:09:26;;;;;;;;;;;;;;;25.24;51.34;96448.37;593093;239;68549;-75
2023/03/05 04:11:53;;;;;;;;;;;;;;;25.24;50.45;96448.37;599698;236;64814;-75
2023/03/05 04:14:21;;;;;;;;;;;;;;;25.23;50.99;96448.67;593160;239;68355;-75
2023/03/05 04:16:48;;;;;;;;;;;;;;;25.23;49.54;96451.36;599626;236;68516;-75
2023/03/05 04:19:16;;;;;;;;;;;;;;;25.23;52.73;96445.98;593090;239;65007;-75
2023/03/05 04:21:43;;;;;;;;;;;;;;;25.22;51.99;96452.47;599645;236;68993;-74
2023/03/05 04:24:11;;;;;;;;;;;;;;;25.22;49.44;96444.41;593132;239;68573;-74
2023/03/05 04:26:38;;;;;;;;;;;;;;;25.21;52.01;96445.52;599730;236;64916;-73
2023/03/05 04:29:06;;;;;;;;;;;;;;;25.19;49.50;96447.72;593171;237;69626;-73
2023/03/05 04:31:33;;;;;;;;;;;;;;;25.19;48.77;96451.20;599691;236;68651;-73
2023/03/05 04:34:01;;;;;;;;;;;;;;;25.18;50.68;96449.63;593154;239;64963;-73
2023/03/05 04:36:28;;;;;;;;;;;;;;;25.17;49.57;96442.64;599733;236;69340;-73
2023/03/05 04:38:56;;;;;;;;;;;;;;;25.18;51.54;96449.63;593154;239;68375;-73
2023/03/05 04:41:23;;;;;;;;;;;;;;;25.18;52.14;96443.43;599771;236;64995;-73
2023/03/05 04:43:50;;;;;;;;;;;;;;;25.16;50.01;96441.07;593111;239;66077;-73
2023/03/05 04:46:18;;;;;;;;;;;;;;;25.16;50.31;96443.76;599713;236;66360;-73
2023/03/05 04:48:45;;;;;;;;;;;;;;;25.16;51.08;96445.66;593156;239;62750;-73
2023/03/05 04:51:13;;;;;;;;;;;;;;;25.15;51.14;96450.22;599712;236;66170;-73
2023/03/05 04:53:40;;;;;;;;;;;;;;;25.15;50.20;96446.74;593381;239;66198;-73
2023/03/05 04:56:08;;;;;;;;;;;;;;;25.14;50.83;96437.08;599902;236;62719;-74
2023/03/05 04:58:36;;;;;;;;;;;;;;;25.13;50.90;96441.66;599887;236;68251;-74
2023/03/05 05:01:05;;;;;;;;;;;;;;;25.13;51.31;96449.73;593341;239;68222;-74
2023/03/05 05:03:32;;;;;;;;;;;;;;;25.13;51.93;96446.26;599874;236;65077;-75
2023/03/05 05:06:01;;;;;;;;;;;;;;;25.12;51.66;96450.81;593225;239;68687;-75
2023/03/05 05:08:29;;;;;;;;;;;;;;;25.12;52.79;96455.41;599833;236;66786;-75
2023/03/05 05:10:58;;;;;;;;;;;;;;;25.11;51.87;96454.63;593305;239;62750;-75
2023/03/05 05:13:25;;;;;;;;;;;;;;;25.10;52.54;96446.85;599872;236;68601;-75
2023/03/05 05:15:53;;;;;;;;;;;;;;;25.11;51.03;96453.83;593334;239;69506;-75
2023/03/05 05:18:20;;;;;;;;;;;;;;;25.09;50.18;96456.03;599900;236;64976;-75
2023/03/05 05:20:48;;;;;;;;;;;;;;;25.08;50.78;96455.25;593324;239;68761;-75
2023/03/05 05:23:16;;;;;;;;;;;;;;;25.08;52.14;96457.94;599874;236;68649;-75
2023/03/05 05:25:44;;;;;;;;;;;;;;;25.07;50.20;96458.23;593336;239;64967;-75
2023/03/05 05:28:12;;;;;;;;;;;;;;;25.08;50.89;96459.84;599880;236;66169;-75
2023/03/05 05:30:39;;;;;;;;;;;;;;;25.07;50.54;96468.98;593343;239;66429;-75
2023/03/05 05:33:07;;;;;;;;;;;;;;;25.07;52.52;96463.61;599864;236;63643;-76
2023/03/05 05:35:36;;;;;;;;;;;;;;;25.06;50.88;96470.89;593333;238;68891;-76
2023/03/05 05:38:03;;;;;;;;;;;;;;;25.06;52.31;96478.16;599772;235;69362;-75
2023/03/05 05:40:31;;;;;;;;;;;;;;;25.04;51.00;96473.09;593327;238;64951;-76
2023/03/05 05:42:58;;;;;;;;;;;;;;;25.03;50.83;96474.20;599874;236;68611;-76
2023/03/05 05:45:25;;;;;;;;;;;;;;;25.03;51.74;96479.58;593359;239;66460;-75
2023/03/05 05:47:53;;;;;;;;;;;;;;;25.03;51.25;96476.89;599911;236;62784;-75
2023/03/05 05:50:21;;;;;;;;;;;;;;;25.01;50.63;96479.09;593335;239;68107;-75
2023/03/05 05:52:48;;;;;;;;;;;;;;;25.01;52.66;96477.19;599835;236;66265;-75
2023/03/05 05:55:16;;;;;;;;;;;;;;;25.01;49.89;96484.46;593351;239;64824;-75
2023/03/05 05:57:43;;;;;;;;;;;;;;;24.98;50.28;96483.19;599913;236;68404;-75
2023/03/05 06:00:12;;;;;;;;;;;;;;;25.00;52.88;96485.58;593339;239;66357;-75
2023/03/05 06:02:39;;;;;;;;;;;;;;;24.99;50.71;96489.34;599871;236;64826;-75
2023/03/05 06:05:08;;;;;;;;;;;;;;;24.99;50.35;96486.66;593317;239;68324;-75
2023/03/05 06:07:36;;;;;;;;;;;;;;;24.98;51.51;96488.56;593338;239;66251;-75
2023/03/05 06:10:04;;;;;;;;;;;;;;;24.98;51.47;96487.77;599932;236;62742;-75
2023/03/05 06:12:31;;;;;;;;;;;;;;;24.97;50.17;96491.58;593359;239;66130;-75
2023/03/05 06:14:59;;;;;;;;;;;;;;;24.97;50.98;96486.98;599900;235;65815;-75
2023/03/05 06:17:28;;;;;;;;;;;;;;;24.97;50.58;96494.27;593156;238;46973;-75
2023/03/05 06:19:57;;;;;;;;;;;;;;;24.95;50.34;96494.56;599874;236;68282;-73
2023/03/05 06:22:24;;;;;;;;;;;;;;;24.95;51.64;96494.56;593318;239;68619;-74
2023/03/05 06:24:52;;;;;;;;;;;;;;;24.94;51.43;96495.67;599899;236;65187;-73
2023/03/05 06:27:19;;;;;;;;;;;;;;;24.93;51.34;96490.59;589606;239;67819;-73
2023/03/05 06:29:47;;;;;;;;;;;;;;;24.92;51.03;96495.18;599869;236;66035;-73
2023/03/05 06:32:16;;;;;;;;;;;;;;;24.95;52.46;96504.52;593337;238;44121;-74
2023/03/05 06:34:43;;;;;;;;;;;;;;;24.93;50.71;96506.72;599917;236;66129;-73
2023/03/05 06:37:11;;;;;;;;;;;;;;;24.91;52.11;96498.98;593319;239;66304;-73
2023/03/05 06:39:38;;;;;;;;;;;;;;;24.90;52.64;96497.38;599906;236;62813;-73
2023/03/05 06:42:06;;;;;;;;;;;;;;;24.91;51.82;96498.16;593313;239;68092;-73
2023/03/05 06:44:33;;;;;;;;;;;;;;;24.90;51.29;96500.06;599849;236;68297;-73
2023/03/05 06:47:01;;;;;;;;;;;;;;;24.88;51.06;96504.98;593318;239;64893;-73
2023/03/05 06:49:30;;;;;;;;;;;;;;;24.88;48.99;96502.29;599883;235;46936;-73
2023/03/05 06:51:58;;;;;;;;;;;;;;;24.88;51.45;96502.29;594215;237;68252;-73
2023/03/05 06:54:25;;;;;;;;;;;;;;;24.86;50.51;96506.38;597449;237;62792;-73
2023/03/05 06:56:53;;;;;;;;;;;;;;;24.86;51.25;96507.17;595132;238;66217;-73
2023/03/05 06:59:20;;;;;;;;;;;;;;;24.85;51.14;96505.56;587934;241;69247;-74
2023/03/05 07:01:49;;;;;;;;;;;;;;;24.86;51.81;96501.80;593299;238;64883;-74
2023/03/05 07:04:19;;;;;;;;;;;;;;;24.85;52.32;96500.19;593306;239;46201;-74
2023/03/05 07:06:46;;;;;;;;;;;;;;;24.84;51.48;96501.30;593336;239;66257;-73
2023/03/05 07:09:15;;;;;;;;;;;;;;;24.85;50.65;96500.19;593339;239;62909;-73
2023/03/05 07:11:43;;;;;;;;;;;;;;;24.85;52.26;96497.50;593259;236;68421;-73
2023/03/05 07:14:10;;;;;;;;;;;;;;;24.84;52.06;96490.55;593324;239;68273;-73
2023/03/05 07:16:39;;;;;;;;;;;;;;;24.84;52.06;96498.62;593381;239;64926;-73
2023/03/05 07:19:06;;;;;;;;;;;;;;;24.83;53.02;96494.36;593321;239;68339;-73
2023/03/05 07:21:36;;;;;;;;;;;;;;;24.83;52.17;96497.04;592993;239;68412;-74
2023/03/05 07:24:04;;;;;;;;;;;;;;;24.84;51.90;96501.30;593274;239;64867;-73
2023/03/05 07:26:37;;;;;;;;;;;;;;;24.83;51.26;96496.22;593306;239;68478;-73
2023/03/05 07:29:01;;;;;;;;;;;;;;;24.83;52.67;96496.22;593071;239;68207;-73
2023/03/05 07:31:32;;;;;;;;;;;;;;;24.83;52.82;96497.04;593336;239;64915;-74
2023/03/05 07:34:01;;;;;;;;;;;;;;;24.81;51.09;96497.34;593232;239;66430;-72
2023/03/05 07:36:29;;;;;;;;;;;;;;;24.82;52.94;96492.75;593303;239;68638;-72
2023/03/05 07:38:56;;;;;;;;;;;;;;;24.81;52.08;96489.27;593164;239;62770;-72
2023/03/05 07:41:24;;;;;;;;;;;;;;;24.82;52.47;96490.06;593170;239;68460;-72
2023/03/05 07:43:52;;;;;;;;;;;;;;;24.81;52.35;96489.27;593335;239;69255;-72
2023/03/05 07:46:23;;;;;;;;;;;;;;;24.82;53.94;96495.44;597884;236;45354;-73
2023/03/05 07:48:51;;;;;;;;;;;;;;;24.80;51.99;96492.28;593311;237;68369;-72
2023/03/05 07:51:19;;;;;;;;;;;;;;;24.80;52.32;96492.28;594693;236;66254;-72
2023/03/05 07:53:47;;;;;;;;;;;;;;;24.79;52.71;96491.47;598004;237;64911;-72
2023/03/05 07:56:16;;;;;;;;;;;;;;;24.79;53.59;96485.31;598588;237;68188;-72
2023/03/05 07:58:44;;;;;;;;;;;;;;;24.81;52.87;96488.48;598357;237;68283;-74
2023/03/05 08:01:17;;;;;;;;;;;;;;;24.79;52.04;96486.09;598532;235;65027;-73
2023/03/05 08:03:42;;;;;;;;;;;;;;;24.79;51.58;96480.72;597201;236;66679;-73
2023/03/05 08:06:11;;;;;;;;;;;;;;;24.78;51.19;96489.11;598533;237;66417;-74
2023/03/05 08:08:44;;;;;;;;;;;;;;;24.79;52.09;96479.94;598614;237;45009;-73
2023/03/05 08:11:13;;;;;;;;;;;;;;;24.80;51.58;96482.33;598630;237;66081;-73
2023/03/05 08:13:44;;;;;;;;;;;;;;;24.81;51.31;96486.59;591900;237;66254;-73
2023/03/05 08:16:13;;;;;;;;;;;;;;;24.82;52.87;96476.62;598538;237;62770;-73
2023/03/05 08:18:41;;;;;;;;;;;;;;;24.83;52.71;96480.09;598606;237;68410;-74
2023/03/05 08:21:20;;;;;;;;;;;;;;;24.84;51.75;96474.43;598572;237;68334;-73
2023/03/05 08:23:47;;;;;;;;;;;;;;;24.85;53.64;96472.53;598349;237;64939;-73
2023/03/05 08:26:19;;;;;;;;;;;;;;;24.86;53.28;96471.45;598564;237;68330;-73
2023/03/05 08:28:47;;;;;;;;;;;;;;;24.86;53.13;96477.61;598547;237;66042;-74
2023/03/05 08:31:16;;;;;;;;;;;;;;;24.88;51.31;96467.34;598569;237;65104;-74
2023/03/05 08:33:43;;;;;;;;;;;;;;;24.89;52.95;96474.30;598588;237;68375;-74
2023/03/05 08:36:11;;;;;;;;;;;;;;;24.89;50.54;96468.14;598555;237;68306;-73
2023/03/05 08:38:38;;;;;;;;;;;;;;;24.91;54.54;96472.10;598617;237;64857;-73
2023/03/05 08:41:06;;;;;;;;;;;;;;;24.93;52.81;96464.50;598577;237;68078;-73
2023/03/05 08:43:33;;;;;;;;;;;;;;;24.94;53.48;96460.73;598594;237;67743;-74
2023/03/05 08:46:01;;;;;;;;;;;;;;;24.94;52.28;96465.31;598594;237;64943;-73
2023/03/05 08:48:28;;;;;;;;;;;;;;;24.96;52.85;96455.02;598578;234;68169;-74
2023/03/05 08:50:56;;;;;;;;;;;;;;;24.97;55.07;96454.73;598414;237;68242;-74
2023/03/05 08:53:24;;;;;;;;;;;;;;;24.98;52.74;96450.14;596988;237;64871;-73
2023/03/05 08:55:55;;;;;;;;;;;;;;;25.00;52.21;96447.94;596934;237;66177;-74
2023/03/05 08:58:23;;;;;;;;;;;;;;;25.01;51.02;96439.55;596993;237;68311;-74
2023/03/05 09:00:50;;;;;;;;;;;;;;;25.02;52.53;96435.78;596988;237;64989;-74
2023/03/05 09:03:18;;;;;;;;;;;;;;;25.05;52.91;96438.95;597003;237;68194;-76
2023/03/05 09:05:46;;;;;;;;;;;;;;;25.06;52.47;96437.84;596968;237;68396;-76
2023/03/05 09:08:13;;;;;;;;;;;;;;;25.07;50.97;96436.73;596972;237;62795;-76
2023/03/05 09:10:42;;;;;;;;;;;;;;;25.08;50.16;96438.33;596929;237;66002;-77
2023/03/05 09:13:09;;;;;;;;;;;;;;;25.09;49.30;96429.14;596945;237;68415;-76
2023/03/05 09:15:37;;;;;;;;;;;;;;;25.11;51.50;96426.95;596981;237;64935;-74
2023/03/05 09:18:04;;;;;;;;;;;;;;;25.12;52.61;96423.14;596966;237;68633;-75
2023/03/05 09:20:32;;;;;;;;;;;;;;;25.13;50.87;96419.37;596941;237;69222;-75
2023/03/05 09:23:00;;;;;;;;;;;;;;;25.14;49.19;96420.94;596927;237;64909;-74
2023/03/05 09:25:27;;;;;;;;;;;;;;;25.16;53.22;96408.80;596980;237;68352;-74
2023/03/05 09:27:55;;;;;;;;;;;;;;;25.16;50.62;96414.18;596953;237;68241;-74
2023/03/05 09:30:22;;;;;;;;;;;;;;;25.16;49.75;96406.11;597002;237;64922;-75
2023/03/05 09:32:50;;;;;;;;;;;;;;;25.19;50.92;96404.70;596960;237;68520;-75
2023/03/05 09:35:17;;;;;;;;;;;;;;;25.19;51.29;96396.63;596973;237;68315;-74
2023/03/05 09:37:45;;;;;;;;;;;;;;;25.19;50.20;96400.11;596930;237;65086;-75
2023/03/05 09:40:14;;;;;;;;;;;;;;;25.22;49.92;96390.63;596937;237;68375;-75
2023/03/05 09:43:01;;;;;;;;;;;;;;;25.21;50.28;96395.22;597005;237;66245;-74
2023/03/05 09:45:39;;;;;;;;;;;;;;;25.23;50.03;96392.98;583337;242;64922;-74
2023/03/05 09:48:07;;;;;;;;;;;;;;;25.24;51.14;96399.18;585525;239;68327;-74
2023/03/05 09:50:39;;;;;;;;;;;;;;;25.24;50.05;96393.80;592111;236;68281;-74
2023/03/05 09:53:24;;;;;;;;;;;;;;;25.25;51.22;96395.37;596969;237;64994;-74
2023/03/05 09:55:52;;;;;;;;;;;;;;;25.26;52.41;96396.95;596947;237;68397;-74
2023/03/05 09:58:27;;;;;;;;;;;;;;;25.26;50.35;96396.95;596943;237;66184;-74
2023/03/05 10:00:56;;;;;;;;;;;;;;;25.27;50.32;96393.17;596773;237;62862;-74
2023/03/05 10:03:28;;;;;;;;;;;;;;;25.27;49.53;96393.17;599968;236;68685;-74
2023/03/05 10:05:58;;;;;;;;;;;;;;;25.28;50.88;96394.74;599972;236;66587;-74
2023/03/05 10:08:29;;;;;;;;;;;;;;;25.29;52.37;96388.28;599839;236;64915;-74
2023/03/05 10:10:57;;;;;;;;;;;;;;;25.29;49.93;96385.59;599982;236;66497;-73
2023/03/05 10:13:26;;;;;;;;;;;;;;;25.30;50.47;96381.78;600026;236;66477;-74
2023/03/05 10:16:11;;;;;;;;;;;;;;;25.29;50.33;96379.39;599993;236;64904;-74
2023/03/05 10:18:56;;;;;;;;;;;;;;;25.30;50.98;96378.30;600002;236;66408;-74
2023/03/05 10:21:29;;;;;;;;;;;;;;;25.30;49.33;96379.09;599690;236;66511;-74
2023/03/05 10:24:07;;;;;;;;;;;;;;;25.31;50.46;96372.59;600012;236;65071;-74
2023/03/05 10:26:43;;;;;;;;;;;;;;;25.32;49.51;96381.45;599823;235;68443;-75
2023/03/05 10:29:13;;;;;;;;;;;;;;;25.31;49.98;96375.28;599798;236;68556;-75
2023/03/05 10:31:47;;;;;;;;;;;;;;;25.32;50.84;96368.82;599979;236;64931;-75
2023/03/05 10:34:20;;;;;;;;;;;;;;;25.32;48.99;96363.44;599729;236;66621;-75
2023/03/05 10:37:04;;;;;;;;;;;;;;;25.32;49.78;96358.06;599919;236;68507;-75
2023/03/05 10:39:48;;;;;;;;;;;;;;;25.33;51.11;96348.88;599976;236;62974;-75
2023/03/05 10:42:26;;;;;;;;;;;;;;;25.33;49.50;96354.25;599954;236;68607;-75
2023/03/05 10:44:58;;;;;;;;;;;;;;;25.33;49.19;96343.50;599895;236;68831;-75
2023/03/05 10:47:30;;;;;;;;;;;;;;;25.34;49.83;96333.52;599936;236;62846;-76
2023/03/05 10:49:58;;;;;;;;;;;;;;;25.35;49.17;96340.50;599997;236;68730;-76
2023/03/05 10:52:30;;;;;;;;;;;;;;;25.35;49.41;96332.44;599950;236;66523;-76
2023/03/05 10:54:57;;;;;;;;;;;;;;;25.35;52.33;96325.16;593238;238;62798;-76
2023/03/05 10:57:26;;;;;;;;;;;;;;;25.35;49.72;96327.05;599807;236;66431;-76
2023/03/05 10:59:55;;;;;;;;;;;;;;;25.35;50.42;96319.77;593299;239;66476;-76
2023/03/05 11:02:22;;;;;;;;;;;;;;;25.36;51.57;96313.28;599751;235;62706;-76
2023/03/05 11:04:51;;;;;;;;;;;;;;;25.35;50.68;96302.85;593195;239;66647;-76
2023/03/05 11:07:21;;;;;;;;;;;;;;;25.36;50.77;96299.83;599813;236;66634;-75
2023/03/05 11:10:02;;;;;;;;;;;;;;;25.36;49.10;96282.91;593172;239;64842;-76
2023/03/05 11:12:31;;;;;;;;;;;;;;;25.36;47.78;96270.24;599465;236;68674;-76
2023/03/05 11:15:07;;;;;;;;;;;;;;;25.38;52.23;96269.94;593330;239;66213;-74
2023/03/05 11:17:38;;;;;;;;;;;;;;;25.37;49.32;96269.16;599825;236;64884;-75
2023/03/05 11:20:24;;;;;;;;;;;;;;;25.38;50.66;96265.34;599930;236;66494;-75
2023/03/05 11:23:05;;;;;;;;;;;;;;;25.39;48.39;96253.47;599834;236;66842;-75
2023/03/05 11:25:33;;;;;;;;;;;;;;;25.39;49.07;96249.99;593292;239;65189;-74
2023/03/05 11:28:02;;;;;;;;;;;;;;;25.39;48.20;96256.16;599825;236;66516;-74
2023/03/05 11:30:31;;;;;;;;;;;;;;;25.41;48.26;96250.47;593290;239;68593;-75
2023/03/05 11:33:09;;;;;;;;;;;;;;;25.42;49.69;96250.14;599828;236;64910;-75
2023/03/05 11:35:38;;;;;;;;;;;;;;;25.42;48.84;96239.38;593350;239;68677;-76
2023/03/05 11:38:07;;;;;;;;;;;;;;;25.44;49.12;96231.00;599830;236;66637;-75
2023/03/05 11:40:37;;;;;;;;;;;;;;;25.45;49.06;96233.39;593310;239;64981;-75
2023/03/05 11:43:05;;;;;;;;;;;;;;;25.45;48.94;96228.01;599844;236;68674;-75
2023/03/05 11:45:32;;;;;;;;;;;;;;;25.46;48.95;96226.89;593282;239;68692;-75
2023/03/05 11:48:02;;;;;;;;;;;;;;;25.48;47.95;96221.17;599858;235;64920;-75
2023/03/05 11:50:31;;;;;;;;;;;;;;;25.51;48.87;96211.67;593237;238;66684;-75
2023/03/05 11:53:00;;;;;;;;;;;;;;;25.51;49.40;96207.11;599580;234;66511;-75
2023/03/05 11:55:41;;;;;;;;;;;;;;;25.54;49.25;96202.99;593093;239;65701;-75
2023/03/05 11:58:23;;;;;;;;;;;;;;;25.54;47.29;96202.99;599637;236;66597;-74
2023/03/05 12:00:50;;;;;;;;;;;;;;;25.55;49.06;96197.27;593099;239;68641;-74
2023/03/05 12:03:19;;;;;;;;;;;;;;;25.56;47.21;96185.39;599625;236;64909;-75
2023/03/05 12:05:48;;;;;;;;;;;;;;;25.57;48.32;96183.52;593195;239;68636;-75
2023/03/05 12:08:19;;;;;;;;;;;;;;;25.59;47.73;96178.58;599413;236;68698;-75
2023/03/05 12:10:47;;;;;;;;;;;;;;;25.60;48.61;96185.56;593120;239;62743;-75
2023/03/05 12:13:16;;;;;;;;;;;;;;;25.62;47.19;96183.34;599618;236;66660;-75
2023/03/05 12:15:51;;;;;;;;;;;;;;;25.64;46.69;96181.10;593064;237;66435;-75
2023/03/05 12:18:25;;;;;;;;;;;;;;;25.66;45.99;96173.51;599861;234;62471;-75
2023/03/05 12:21:04;;;;;;;;;;;;;;;25.67;47.28;96164.31;585666;239;69907;-75
2023/03/05 12:23:34;;;;;;;;;;;;;;;25.68;45.47;96173.98;599623;236;68506;-76
2023/03/05 12:26:03;;;;;;;;;;;;;;;25.70;48.50;96166.39;592521;239;62787;-76
2023/03/05 12:28:32;;;;;;;;;;;;;;;25.70;47.26;96166.39;599611;236;66443;-76
2023/03/05 12:31:01;;;;;;;;;;;;;;;25.71;47.41;96154.50;593110;239;65985;-76
2023/03/05 12:33:30;;;;;;;;;;;;;;;25.73;47.17;96163.05;599697;235;63673;-76
2023/03/05 12:36:06;;;;;;;;;;;;;;;25.74;48.69;96161.92;593054;238;68445;-76
2023/03/05 12:38:33;;;;;;;;;;;;;;;25.76;45.51;96161.62;597587;236;68938;-75
2023/03/05 12:41:19;;;;;;;;;;;;;;;25.78;45.51;96157.49;593048;239;64891;-75
2023/03/05 12:43:47;;;;;;;;;;;;;;;25.80;46.30;96163.32;599620;235;66565;-75
2023/03/05 12:46:27;;;;;;;;;;;;;;;25.82;46.22;96160.31;592402;239;68333;-75
2023/03/05 12:48:55;;;;;;;;;;;;;;;25.82;47.06;96149.55;599701;236;64916;-75
2023/03/05 12:51:30;;;;;;;;;;;;;;;25.84;47.47;96158.91;593650;236;68655;-75
2023/03/05 12:53:59;;;;;;;;;;;;;;;25.86;46.79;96162.08;601577;234;68352;-75
2023/03/05 12:56:28;;;;;;;;;;;;;;;25.87;46.69;96157.48;595169;238;65211;-75
2023/03/05 12:58:57;;;;;;;;;;;;;;;25.88;46.79;96162.53;601756;235;68073;-75